createdAt,value
2023-01-25T00:12:14.460Z,12.50
2023-01-25T00:16:43.922Z,14.30
2023-01-25T00:21:14.056Z,10.60
2023-01-25T00:39:42.645Z,13.20
2023-01-25T00:44:12.116Z,14.60
2023-01-25T00:48:26.211Z,15.50
2023-01-25T00:52:54.812Z,11.90
2023-01-25T00:57:25.463Z,11.10
2023-01-25T01:01:49.455Z,19.20
2023-01-25T01:06:19.587Z,16.30
2023-01-25T01:27:55.257Z,15.80
2023-01-25T01:32:16.849Z,18.10
2023-01-25T01:36:49.316Z,15.30
2023-01-25T01:58:24.278Z,10.80
2023-01-25T02:02:53.513Z,10.40
2023-01-25T02:07:41.945Z,9.00
2023-01-25T02:33:54.327Z,9.60
2023-01-25T02:38:14.546Z,8.80
2023-01-25T02:42:36.568Z,8.20
2023-01-25T02:59:28.317Z,8.30
2023-01-25T03:03:57.697Z,7.40
2023-01-25T03:08:26.867Z,5.60
2023-01-25T03:12:57.299Z,7.10
2023-01-25T03:35:18.592Z,9.40
2023-01-25T03:39:37.632Z,8.00
2023-01-25T03:44:06.939Z,7.50
2023-01-25T04:09:52.448Z,7.70
2023-01-25T04:14:10.230Z,6.70
2023-01-25T04:23:36.697Z,7.20
2023-01-25T04:49:08.453Z,8.50
2023-01-25T04:53:26.854Z,10.10
2023-01-25T05:15:14.186Z,9.60
2023-01-25T05:19:43.501Z,9.00
2023-01-25T05:24:12.448Z,7.50
2023-01-25T05:28:42.569Z,7.50
2023-01-25T05:33:20.641Z,9.70
2023-01-25T05:37:42.675Z,9.60
2023-01-25T05:55:04.229Z,9.00
2023-01-25T05:59:34.135Z,9.80
2023-01-25T06:03:46.145Z,10.10
2023-01-25T06:08:16.526Z,8.60
2023-01-25T06:34:04.517Z,10.10
2023-01-25T06:38:36.855Z,8.80
2023-01-25T06:43:06.458Z,9.00
2023-01-25T06:47:35.670Z,8.50
2023-01-25T06:51:48.391Z,11.40
2023-01-25T07:21:30.665Z,11.90
2023-01-25T07:25:48.181Z,12.80
2023-01-25T07:30:17.499Z,9.90
2023-01-25T07:34:47.773Z,10.80
2023-01-25T07:39:17.038Z,11.60
2023-01-25T07:43:04.911Z,11.80
2023-01-25T08:10:01.757Z,12.60
2023-01-25T08:14:31.218Z,14.50
2023-01-25T08:19:01.011Z,11.00
2023-01-25T08:23:22.848Z,13.40
2023-01-25T08:36:03.824Z,12.80
2023-01-25T08:40:35.192Z,11.20
2023-01-25T08:45:08.577Z,10.50
2023-01-25T08:49:37.980Z,13.20
2023-01-25T08:54:02.731Z,10.10
2023-01-25T08:58:33.120Z,8.60
2023-01-25T09:02:55.471Z,12.60
2023-01-25T09:07:08.704Z,13.60
2023-01-25T09:29:31.218Z,14.20
2023-01-25T09:33:40.703Z,10.60
2023-01-25T09:37:54.638Z,11.20
2023-01-25T09:42:23.505Z,11.70
2023-01-25T09:46:56.864Z,11.40
2023-01-25T09:51:33.093Z,12.30
2023-01-25T09:56:02.397Z,11.20
2023-01-25T10:17:22.149Z,12.90
2023-01-25T10:21:17.558Z,11.90
2023-01-25T10:26:05.195Z,17.30
2023-01-25T10:30:34.032Z,13.30
2023-01-25T10:35:15.624Z,13.60
2023-01-25T10:39:54.185Z,15.10
2023-01-25T11:01:11.833Z,14.30
2023-01-25T11:05:41.062Z,13.10
2023-01-25T11:10:22.570Z,13.70
2023-01-25T11:14:42.983Z,16.60
2023-01-25T11:18:56.364Z,22.40
2023-01-25T11:23:32.369Z,20.30
2023-01-25T11:28:21.304Z,15.60
2023-01-25T11:56:36.942Z,19.30
2023-01-25T12:01:07.883Z,18.90
2023-01-25T12:05:47.056Z,15.40
2023-01-25T12:10:23.882Z,18.10
2023-01-25T12:15:02.103Z,17.70
2023-01-25T12:19:30.127Z,19.30
2023-01-25T12:32:41.595Z,19.90
2023-01-25T12:37:17.870Z,18.00
2023-01-25T12:41:56.279Z,18.90
2023-01-25T12:46:15.478Z,19.60
2023-01-25T12:50:41.248Z,18.30
2023-01-25T12:54:43.027Z,18.70
2023-01-25T13:20:59.622Z,21.70
2023-01-25T13:25:44.243Z,20.00
2023-01-25T13:30:40.803Z,21.20
2023-01-25T13:39:27.043Z,23.30
2023-01-25T13:44:00.895Z,21.70
2023-01-25T13:48:42.150Z,24.80
2023-01-25T13:53:25.679Z,22.50
2023-01-25T13:57:55.822Z,24.20
2023-01-25T14:01:56.292Z,24.40
2023-01-25T14:06:24.150Z,21.00
2023-01-25T14:10:43.230Z,22.30
2023-01-25T14:24:49.762Z,26.20
2023-01-25T14:29:19.025Z,25.60
2023-01-25T14:34:06.382Z,28.40
2023-01-25T14:52:21.398Z,24.00
2023-01-25T14:57:02.255Z,23.90
2023-01-25T15:01:34.482Z,21.60
2023-01-25T15:23:15.553Z,26.60
2023-01-25T15:27:44.370Z,24.80
2023-01-25T15:32:03.553Z,24.00
2023-01-25T15:36:33.808Z,26.60
2023-01-25T15:41:01.619Z,28.20
2023-01-25T16:04:54.409Z,29.10
2023-01-25T16:09:23.305Z,25.20
2023-01-25T16:13:27.687Z,26.20
2023-01-25T16:17:57.751Z,27.00
2023-01-25T16:39:37.640Z,25.50
2023-01-25T16:44:07.004Z,23.90
2023-01-25T16:48:36.280Z,23.80
2023-01-25T16:52:49.498Z,26.10
2023-01-25T17:12:31.553Z,28.20
2023-01-25T17:17:00.825Z,25.40
2023-01-25T17:21:38.174Z,24.90
2023-01-25T17:25:59.217Z,23.70
2023-01-25T17:30:22.368Z,25.90
2023-01-25T17:34:54.002Z,24.30
2023-01-25T18:01:27.871Z,39.00
2023-01-25T18:05:57.164Z,36.60
2023-01-25T18:10:26.582Z,41.40
2023-01-25T18:18:36.343Z,39.60
2023-01-25T18:22:42.226Z,45.20
2023-01-25T18:31:21.121Z,43.20
2023-01-25T18:35:51.008Z,43.20
2023-01-25T18:59:23.885Z,42.30
2023-01-25T19:03:37.627Z,39.40
2023-01-25T19:08:07.320Z,44.40
2023-01-25T19:12:09.097Z,42.70
2023-01-25T19:16:22.254Z,42.90
2023-01-25T19:20:14.933Z,42.00
2023-01-25T19:37:15.069Z,50.70
2023-01-25T19:41:14.427Z,48.20
2023-01-25T19:45:18.173Z,43.00
2023-01-25T19:49:47.496Z,40.20
2023-01-25T20:11:02.216Z,40.50
2023-01-25T20:15:31.486Z,40.60
2023-01-25T20:19:53.590Z,44.90
2023-01-25T20:24:24.314Z,44.70
2023-01-25T20:28:54.580Z,41.80
2023-01-25T21:35:25.423Z,50.10
2023-01-25T21:39:54.818Z,48.30
2023-01-25T21:44:22.738Z,48.80
2023-01-25T21:48:41.899Z,42.60
2023-01-25T21:53:02.698Z,41.30
2023-01-25T21:56:29.638Z,41.80
2023-01-25T22:00:50.389Z,39.50
2023-01-25T22:05:05.696Z,40.20
2023-01-25T22:08:36.172Z,40.10
2023-01-25T22:11:49.910Z,46.40
2023-01-25T22:16:03.218Z,39.20
2023-01-25T22:20:32.555Z,38.00
2023-01-25T22:24:57.285Z,36.10
2023-01-25T22:59:25.641Z,49.00
2023-01-25T23:03:54.439Z,46.50
2023-01-25T23:08:23.738Z,42.80
2023-01-25T23:12:54.128Z,39.00
2023-01-25T23:21:14.597Z,40.70
2023-01-25T23:25:34.286Z,39.20
2023-01-25T23:33:56.531Z,42.10
2023-01-25T23:38:06.628Z,43.50
2023-01-25T23:42:36.051Z,35.40
